sensor_id;sensor_type;location;lat;lon;timestamp;P1;durP1;ratioP1;P2;durP2;ratioP2
1414;SDS011;702;49.466;11.086;2023-02-22T00:00:26;13.00;;;11.70;;
1414;SDS011;702;49.466;11.086;2023-02-22T00:03:07;16.53;;;12.10;;
1414;SDS011;702;49.466;11.086;2023-02-22T00:05:39;14.53;;;13.03;;
1414;SDS011;702;49.466;11.086;2023-02-22T00:08:09;15.23;;;12.53;;
1414;SDS011;702;49.466;11.086;2023-02-22T00:10:38;13.63;;;11.70;;
1414;SDS011;702;49.466;11.086;2023-02-22T00:13:06;13.33;;;11.93;;
1414;SDS011;702;49.466;11.086;2023-02-22T00:15:35;14.10;;;11.60;;
1414;SDS011;702;49.466;11.086;2023-02-22T00:18:06;13.67;;;11.87;;
1414;SDS011;702;49.466;11.086;2023-02-22T00:20:35;13.40;;;9.73;;
1414;SDS011;702;49.466;11.086;2023-02-22T00:23:04;13.20;;;11.30;;
1414;SDS011;702;49.466;11.086;2023-02-22T00:25:32;11.07;;;10.00;;
1414;SDS011;702;49.466;11.086;2023-02-22T00:28:02;12.27;;;10.97;;
1414;SDS011;702;49.466;11.086;2023-02-22T00:30:29;12.17;;;10.97;;
1414;SDS011;702;49.466;11.086;2023-02-22T00:32:58;15.23;;;10.63;;
1414;SDS011;702;49.466;11.086;2023-02-22T00:35:27;12.83;;;11.00;;
1414;SDS011;702;49.466;11.086;2023-02-22T00:37:56;12.87;;;11.10;;
1414;SDS011;702;49.466;11.086;2023-02-22T00:40:25;13.27;;;11.10;;
1414;SDS011;702;49.466;11.086;2023-02-22T00:42:55;13.30;;;11.73;;
1414;SDS011;702;49.466;11.086;2023-02-22T00:45:28;12.33;;;11.00;;
1414;SDS011;702;49.466;11.086;2023-02-22T00:47:57;13.50;;;11.10;;
1414;SDS011;702;49.466;11.086;2023-02-22T00:50:26;12.20;;;11.00;;
1414;SDS011;702;49.466;11.086;2023-02-22T00:52:56;12.43;;;11.20;;
1414;SDS011;702;49.466;11.086;2023-02-22T00:55:25;15.97;;;11.50;;
1414;SDS011;702;49.466;11.086;2023-02-22T00:57:54;12.67;;;11.07;;
1414;SDS011;702;49.466;11.086;2023-02-22T01:00:25;12.87;;;11.37;;
1414;SDS011;702;49.466;11.086;2023-02-22T01:02:55;14.13;;;11.60;;
1414;SDS011;702;49.466;11.086;2023-02-22T01:05:25;15.00;;;12.27;;
1414;SDS011;702;49.466;11.086;2023-02-22T01:07:54;13.47;;;11.70;;
1414;SDS011;702;49.466;11.086;2023-02-22T01:10:24;13.53;;;12.23;;
1414;SDS011;702;49.466;11.086;2023-02-22T01:12:53;13.57;;;11.67;;
1414;SDS011;702;49.466;11.086;2023-02-22T01:15:22;17.53;;;11.57;;
1414;SDS011;702;49.466;11.086;2023-02-22T01:17:55;13.57;;;11.93;;
1414;SDS011;702;49.466;11.086;2023-02-22T01:20:24;13.47;;;11.53;;
1414;SDS011;702;49.466;11.086;2023-02-22T01:22:53;13.47;;;12.13;;
1414;SDS011;702;49.466;11.086;2023-02-22T01:25:24;11.93;;;10.73;;
1414;SDS011;702;49.466;11.086;2023-02-22T01:27:53;14.50;;;11.47;;
1414;SDS011;702;49.466;11.086;2023-02-22T01:30:22;13.30;;;11.03;;
1414;SDS011;702;49.466;11.086;2023-02-22T01:32:53;12.97;;;11.67;;
1414;SDS011;702;49.466;11.086;2023-02-22T01:35:21;13.90;;;12.07;;
1414;SDS011;702;49.466;11.086;2023-02-22T01:37:52;13.40;;;12.20;;
1414;SDS011;702;49.466;11.086;2023-02-22T01:40:20;13.17;;;11.87;;
1414;SDS011;702;49.466;11.086;2023-02-22T01:42:51;15.23;;;12.30;;
1414;SDS011;702;49.466;11.086;2023-02-22T01:45:39;12.47;;;11.17;;
1414;SDS011;702;49.466;11.086;2023-02-22T01:48:15;14.57;;;11.40;;
1414;SDS011;702;49.466;11.086;2023-02-22T01:50:49;14.00;;;10.93;;
1414;SDS011;702;49.466;11.086;2023-02-22T01:53:21;13.17;;;11.80;;
1414;SDS011;702;49.466;11.086;2023-02-22T01:55:52;13.33;;;12.03;;
1414;SDS011;702;49.466;11.086;2023-02-22T01:58:21;12.87;;;11.50;;
1414;SDS011;702;49.466;11.086;2023-02-22T02:00:51;11.80;;;10.70;;
1414;SDS011;702;49.466;11.086;2023-02-22T02:03:20;11.60;;;10.50;;
1414;SDS011;702;49.466;11.086;2023-02-22T02:05:52;13.10;;;11.13;;
1414;SDS011;702;49.466;11.086;2023-02-22T02:08:24;11.83;;;10.43;;
1414;SDS011;702;49.466;11.086;2023-02-22T02:11:01;14.03;;;11.60;;
1414;SDS011;702;49.466;11.086;2023-02-22T02:13:32;12.83;;;11.03;;
1414;SDS011;702;49.466;11.086;2023-02-22T02:16:02;11.87;;;10.67;;
1414;SDS011;702;49.466;11.086;2023-02-22T02:18:30;12.53;;;11.10;;
1414;SDS011;702;49.466;11.086;2023-02-22T02:21:21;13.90;;;11.20;;
1414;SDS011;702;49.466;11.086;2023-02-22T02:27:39;15.30;;;11.10;;
1414;SDS011;702;49.466;11.086;2023-02-22T02:30:45;13.60;;;12.20;;
1414;SDS011;702;49.466;11.086;2023-02-22T02:33:37;13.67;;;11.07;;
1414;SDS011;702;49.466;11.086;2023-02-22T02:36:11;14.90;;;10.73;;
1414;SDS011;702;49.466;11.086;2023-02-22T02:38:45;12.97;;;11.13;;
1414;SDS011;702;49.466;11.086;2023-02-22T02:41:22;13.13;;;11.23;;
1414;SDS011;702;49.466;11.086;2023-02-22T02:43:56;12.13;;;10.80;;
1414;SDS011;702;49.466;11.086;2023-02-22T02:46:29;15.07;;;12.27;;
1414;SDS011;702;49.466;11.086;2023-02-22T02:49:03;11.47;;;10.30;;
1414;SDS011;702;49.466;11.086;2023-02-22T02:51:35;12.73;;;10.83;;
1414;SDS011;702;49.466;11.086;2023-02-22T02:54:06;15.50;;;11.20;;
1414;SDS011;702;49.466;11.086;2023-02-22T02:56:35;11.63;;;10.50;;
1414;SDS011;702;49.466;11.086;2023-02-22T02:59:02;13.53;;;12.13;;
1414;SDS011;702;49.466;11.086;2023-02-22T03:01:51;14.73;;;10.87;;
1414;SDS011;702;49.466;11.086;2023-02-22T03:04:39;15.77;;;11.80;;
1414;SDS011;702;49.466;11.086;2023-02-22T03:07:23;11.67;;;10.50;;
1414;SDS011;702;49.466;11.086;2023-02-22T03:10:13;13.60;;;11.00;;
1414;SDS011;702;49.466;11.086;2023-02-22T03:12:55;12.63;;;10.43;;
1414;SDS011;702;49.466;11.086;2023-02-22T03:15:35;12.47;;;11.13;;
1414;SDS011;702;49.466;11.086;2023-02-22T03:18:12;12.87;;;10.80;;
1414;SDS011;702;49.466;11.086;2023-02-22T03:20:50;15.83;;;11.17;;
1414;SDS011;702;49.466;11.086;2023-02-22T03:23:25;11.80;;;10.60;;
1414;SDS011;702;49.466;11.086;2023-02-22T03:26:00;13.73;;;11.33;;
1414;SDS011;702;49.466;11.086;2023-02-22T03:28:32;14.83;;;11.00;;
1414;SDS011;702;49.466;11.086;2023-02-22T03:31:03;12.30;;;10.80;;
1414;SDS011;702;49.466;11.086;2023-02-22T03:33:35;12.70;;;11.37;;
1414;SDS011;702;49.466;11.086;2023-02-22T03:36:11;14.53;;;11.80;;
1414;SDS011;702;49.466;11.086;2023-02-22T03:38:44;12.73;;;10.23;;
1414;SDS011;702;49.466;11.086;2023-02-22T03:41:12;12.50;;;11.07;;
1414;SDS011;702;49.466;11.086;2023-02-22T03:43:46;14.07;;;10.70;;
1414;SDS011;702;49.466;11.086;2023-02-22T03:46:18;13.10;;;11.30;;
1414;SDS011;702;49.466;11.086;2023-02-22T03:48:49;11.40;;;10.20;;
1414;SDS011;702;49.466;11.086;2023-02-22T03:51:20;13.10;;;11.00;;
1414;SDS011;702;49.466;11.086;2023-02-22T03:53:49;12.90;;;10.97;;
1414;SDS011;702;49.466;11.086;2023-02-22T03:56:19;13.10;;;11.67;;
1414;SDS011;702;49.466;11.086;2023-02-22T03:58:51;14.90;;;12.60;;
1414;SDS011;702;49.466;11.086;2023-02-22T04:01:19;13.33;;;11.57;;
1414;SDS011;702;49.466;11.086;2023-02-22T04:03:47;13.33;;;11.93;;
1414;SDS011;702;49.466;11.086;2023-02-22T04:06:15;13.23;;;10.90;;
1414;SDS011;702;49.466;11.086;2023-02-22T04:08:43;14.47;;;12.00;;
1414;SDS011;702;49.466;11.086;2023-02-22T04:11:11;14.30;;;10.93;;
1414;SDS011;702;49.466;11.086;2023-02-22T04:13:38;14.00;;;10.90;;
1414;SDS011;702;49.466;11.086;2023-02-22T04:16:05;12.33;;;10.83;;
1414;SDS011;702;49.466;11.086;2023-02-22T04:18:33;12.40;;;11.07;;
1414;SDS011;702;49.466;11.086;2023-02-22T04:21:00;14.17;;;12.10;;
1414;SDS011;702;49.466;11.086;2023-02-22T04:23:28;13.43;;;11.97;;
1414;SDS011;702;49.466;11.086;2023-02-22T04:25:57;11.13;;;10.10;;
1414;SDS011;702;49.466;11.086;2023-02-22T04:28:24;11.50;;;10.40;;
1414;SDS011;702;49.466;11.086;2023-02-22T04:30:51;12.77;;;10.73;;
1414;SDS011;702;49.466;11.086;2023-02-22T04:33:18;12.87;;;11.57;;
1414;SDS011;702;49.466;11.086;2023-02-22T04:35:46;12.53;;;11.23;;
1414;SDS011;702;49.466;11.086;2023-02-22T04:38:13;15.83;;;11.77;;
1414;SDS011;702;49.466;11.086;2023-02-22T04:40:40;14.50;;;11.23;;
1414;SDS011;702;49.466;11.086;2023-02-22T04:43:09;12.43;;;11.20;;
1414;SDS011;702;49.466;11.086;2023-02-22T04:45:36;12.57;;;10.83;;
1414;SDS011;702;49.466;11.086;2023-02-22T04:48:04;14.17;;;11.27;;
1414;SDS011;702;49.466;11.086;2023-02-22T04:50:31;12.00;;;10.70;;
1414;SDS011;702;49.466;11.086;2023-02-22T04:52:59;12.47;;;11.17;;
1414;SDS011;702;49.466;11.086;2023-02-22T04:55:26;12.37;;;11.07;;
1414;SDS011;702;49.466;11.086;2023-02-22T04:57:53;14.20;;;11.13;;
1414;SDS011;702;49.466;11.086;2023-02-22T05:00:24;13.23;;;11.93;;
1414;SDS011;702;49.466;11.086;2023-02-22T05:02:51;13.10;;;11.70;;
1414;SDS011;702;49.466;11.086;2023-02-22T05:05:19;15.53;;;13.80;;
1414;SDS011;702;49.466;11.086;2023-02-22T05:07:48;15.17;;;13.07;;
1414;SDS011;702;49.466;11.086;2023-02-22T05:10:15;16.57;;;14.33;;
1414;SDS011;702;49.466;11.086;2023-02-22T05:12:43;16.67;;;14.20;;
1414;SDS011;702;49.466;11.086;2023-02-22T05:15:14;15.27;;;12.30;;
1414;SDS011;702;49.466;11.086;2023-02-22T05:17:44;16.63;;;13.73;;
1414;SDS011;702;49.466;11.086;2023-02-22T05:20:14;15.00;;;13.40;;
1414;SDS011;702;49.466;11.086;2023-02-22T05:22:48;17.17;;;11.87;;
1414;SDS011;702;49.466;11.086;2023-02-22T05:25:16;13.73;;;12.27;;
1414;SDS011;702;49.466;11.086;2023-02-22T05:27:48;12.90;;;11.50;;
1414;SDS011;702;49.466;11.086;2023-02-22T05:30:23;17.47;;;11.50;;
1414;SDS011;702;49.466;11.086;2023-02-22T05:32:55;13.83;;;11.97;;
1414;SDS011;702;49.466;11.086;2023-02-22T05:35:23;11.97;;;9.93;;
1414;SDS011;702;49.466;11.086;2023-02-22T05:37:52;16.97;;;12.00;;
1414;SDS011;702;49.466;11.086;2023-02-22T05:40:19;12.50;;;11.20;;
1414;SDS011;702;49.466;11.086;2023-02-22T05:42:51;12.40;;;10.97;;
1414;SDS011;702;49.466;11.086;2023-02-22T05:45:20;13.70;;;10.43;;
1414;SDS011;702;49.466;11.086;2023-02-22T05:47:49;11.97;;;10.37;;
1414;SDS011;702;49.466;11.086;2023-02-22T05:50:19;11.40;;;9.10;;
1414;SDS011;702;49.466;11.086;2023-02-22T05:52:47;10.47;;;9.40;;
1414;SDS011;702;49.466;11.086;2023-02-22T05:55:14;13.33;;;10.47;;
1414;SDS011;702;49.466;11.086;2023-02-22T05:57:44;9.83;;;8.70;;
1414;SDS011;702;49.466;11.086;2023-02-22T06:00:13;12.73;;;10.80;;
1414;SDS011;702;49.466;11.086;2023-02-22T06:02:44;14.40;;;10.03;;
1414;SDS011;702;49.466;11.086;2023-02-22T06:05:11;12.87;;;10.10;;
1414;SDS011;702;49.466;11.086;2023-02-22T06:07:40;11.73;;;10.17;;
1414;SDS011;702;49.466;11.086;2023-02-22T06:10:07;10.67;;;9.47;;
1414;SDS011;702;49.466;11.086;2023-02-22T06:12:34;11.57;;;9.70;;
1414;SDS011;702;49.466;11.086;2023-02-22T06:15:02;11.20;;;10.00;;
1414;SDS011;702;49.466;11.086;2023-02-22T06:17:29;13.33;;;10.13;;
1414;SDS011;702;49.466;11.086;2023-02-22T06:19:56;10.73;;;9.63;;
1414;SDS011;702;49.466;11.086;2023-02-22T06:22:24;12.13;;;9.70;;
1414;SDS011;702;49.466;11.086;2023-02-22T06:24:52;13.07;;;11.37;;
1414;SDS011;702;49.466;11.086;2023-02-22T06:27:19;12.97;;;10.07;;
1414;SDS011;702;49.466;11.086;2023-02-22T06:29:47;12.47;;;10.20;;
1414;SDS011;702;49.466;11.086;2023-02-22T06:32:14;11.57;;;10.30;;
1414;SDS011;702;49.466;11.086;2023-02-22T06:34:41;14.47;;;9.27;;
1414;SDS011;702;49.466;11.086;2023-02-22T06:37:08;12.03;;;9.23;;
1414;SDS011;702;49.466;11.086;2023-02-22T06:39:35;9.87;;;8.40;;
1414;SDS011;702;49.466;11.086;2023-02-22T06:42:04;10.90;;;9.80;;
1414;SDS011;702;49.466;11.086;2023-02-22T06:44:31;11.77;;;9.50;;
1414;SDS011;702;49.466;11.086;2023-02-22T06:46:59;10.47;;;8.80;;
1414;SDS011;702;49.466;11.086;2023-02-22T06:49:26;10.67;;;9.47;;
1414;SDS011;702;49.466;11.086;2023-02-22T06:51:53;15.53;;;9.43;;
1414;SDS011;702;49.466;11.086;2023-02-22T06:54:21;11.50;;;8.93;;
1414;SDS011;702;49.466;11.086;2023-02-22T06:56:49;9.70;;;8.60;;
1414;SDS011;702;49.466;11.086;2023-02-22T06:59:17;10.87;;;8.87;;
1414;SDS011;702;49.466;11.086;2023-02-22T07:01:46;12.00;;;9.40;;
1414;SDS011;702;49.466;11.086;2023-02-22T07:04:13;9.83;;;8.83;;
1414;SDS011;702;49.466;11.086;2023-02-22T07:06:43;10.73;;;8.40;;
1414;SDS011;702;49.466;11.086;2023-02-22T07:09:12;9.90;;;8.63;;
1414;SDS011;702;49.466;11.086;2023-02-22T07:11:39;11.60;;;9.83;;
1414;SDS011;702;49.466;11.086;2023-02-22T07:14:06;9.60;;;8.60;;
1414;SDS011;702;49.466;11.086;2023-02-22T07:16:35;10.70;;;9.27;;
1414;SDS011;702;49.466;11.086;2023-02-22T07:19:02;12.40;;;9.13;;
1414;SDS011;702;49.466;11.086;2023-02-22T07:21:30;13.30;;;9.67;;
1414;SDS011;702;49.466;11.086;2023-02-22T07:23:57;11.60;;;9.70;;
1414;SDS011;702;49.466;11.086;2023-02-22T07:26:24;12.40;;;10.40;;
1414;SDS011;702;49.466;11.086;2023-02-22T07:28:53;10.30;;;9.20;;
1414;SDS011;702;49.466;11.086;2023-02-22T07:31:20;11.40;;;10.20;;
1414;SDS011;702;49.466;11.086;2023-02-22T07:33:49;12.73;;;10.20;;
1414;SDS011;702;49.466;11.086;2023-02-22T07:36:17;12.83;;;9.33;;
1414;SDS011;702;49.466;11.086;2023-02-22T07:38:44;11.30;;;9.60;;
1414;SDS011;702;49.466;11.086;2023-02-22T07:41:11;12.60;;;10.20;;
1414;SDS011;702;49.466;11.086;2023-02-22T07:43:39;11.27;;;10.03;;
1414;SDS011;702;49.466;11.086;2023-02-22T07:46:06;11.57;;;10.37;;
1414;SDS011;702;49.466;11.086;2023-02-22T07:48:33;10.43;;;9.20;;
1414;SDS011;702;49.466;11.086;2023-02-22T07:51:02;12.70;;;11.40;;
1414;SDS011;702;49.466;11.086;2023-02-22T07:53:30;11.07;;;9.87;;
1414;SDS011;702;49.466;11.086;2023-02-22T07:55:59;12.93;;;8.80;;
1414;SDS011;702;49.466;11.086;2023-02-22T07:58:29;13.73;;;10.30;;
1414;SDS011;702;49.466;11.086;2023-02-22T08:00:57;15.03;;;10.40;;
1414;SDS011;702;49.466;11.086;2023-02-22T08:03:26;12.47;;;10.87;;
1414;SDS011;702;49.466;11.086;2023-02-22T08:05:58;14.57;;;10.37;;
1414;SDS011;702;49.466;11.086;2023-02-22T08:08:28;11.80;;;9.70;;
1414;SDS011;702;49.466;11.086;2023-02-22T08:10:56;15.33;;;10.60;;
1414;SDS011;702;49.466;11.086;2023-02-22T08:13:23;13.13;;;9.77;;
1414;SDS011;702;49.466;11.086;2023-02-22T08:15:51;11.70;;;10.50;;
1414;SDS011;702;49.466;11.086;2023-02-22T08:18:19;12.10;;;9.27;;
1414;SDS011;702;49.466;11.086;2023-02-22T08:20:48;11.37;;;10.17;;
1414;SDS011;702;49.466;11.086;2023-02-22T08:23:17;13.97;;;9.83;;
1414;SDS011;702;49.466;11.086;2023-02-22T08:25:47;14.00;;;10.33;;
1414;SDS011;702;49.466;11.086;2023-02-22T08:28:16;13.43;;;10.10;;
1414;SDS011;702;49.466;11.086;2023-02-22T08:30:47;11.90;;;10.50;;
1414;SDS011;702;49.466;11.086;2023-02-22T08:33:15;13.37;;;10.07;;
1414;SDS011;702;49.466;11.086;2023-02-22T08:35:44;10.63;;;9.60;;
1414;SDS011;702;49.466;11.086;2023-02-22T08:38:18;12.60;;;10.67;;
1414;SDS011;702;49.466;11.086;2023-02-22T08:40:51;14.03;;;11.07;;
1414;SDS011;702;49.466;11.086;2023-02-22T08:43:18;13.23;;;11.53;;
1414;SDS011;702;49.466;11.086;2023-02-22T08:45:47;15.40;;;11.50;;
1414;SDS011;702;49.466;11.086;2023-02-22T08:48:16;19.07;;;10.70;;
1414;SDS011;702;49.466;11.086;2023-02-22T08:50:44;15.33;;;11.87;;
1414;SDS011;702;49.466;11.086;2023-02-22T08:53:11;15.47;;;12.13;;
1414;SDS011;702;49.466;11.086;2023-02-22T08:55:40;15.57;;;12.17;;
1414;SDS011;702;49.466;11.086;2023-02-22T08:58:09;17.00;;;11.53;;
1414;SDS011;702;49.466;11.086;2023-02-22T09:00:38;15.80;;;10.73;;
1414;SDS011;702;49.466;11.086;2023-02-22T09:03:09;11.97;;;10.00;;
1414;SDS011;702;49.466;11.086;2023-02-22T09:05:38;23.03;;;13.10;;
1414;SDS011;702;49.466;11.086;2023-02-22T09:08:05;30.73;;;12.80;;
1414;SDS011;702;49.466;11.086;2023-02-22T09:10:33;23.00;;;13.50;;
1414;SDS011;702;49.466;11.086;2023-02-22T09:13:01;19.50;;;12.13;;
1414;SDS011;702;49.466;11.086;2023-02-22T09:15:31;14.47;;;11.80;;
1414;SDS011;702;49.466;11.086;2023-02-22T09:18:01;16.53;;;11.90;;
1414;SDS011;702;49.466;11.086;2023-02-22T09:20:29;19.50;;;12.17;;
1414;SDS011;702;49.466;11.086;2023-02-22T09:22:56;17.13;;;13.20;;
1414;SDS011;702;49.466;11.086;2023-02-22T09:25:23;15.80;;;10.93;;
1414;SDS011;702;49.466;11.086;2023-02-22T09:27:52;12.00;;;10.73;;
1414;SDS011;702;49.466;11.086;2023-02-22T09:30:21;18.53;;;11.77;;
1414;SDS011;702;49.466;11.086;2023-02-22T09:32:53;12.73;;;10.67;;
1414;SDS011;702;49.466;11.086;2023-02-22T09:35:23;12.67;;;11.33;;
1414;SDS011;702;49.466;11.086;2023-02-22T09:37:53;13.33;;;11.90;;
1414;SDS011;702;49.466;11.086;2023-02-22T09:40:21;12.80;;;11.50;;
1414;SDS011;702;49.466;11.086;2023-02-22T09:45:48;13.10;;;10.70;;
1414;SDS011;702;49.466;11.086;2023-02-22T09:48:29;11.90;;;10.63;;
1414;SDS011;702;49.466;11.086;2023-02-22T09:51:00;12.80;;;11.50;;
1414;SDS011;702;49.466;11.086;2023-02-22T09:53:36;12.03;;;10.77;;
1414;SDS011;702;49.466;11.086;2023-02-22T09:56:08;14.03;;;10.50;;
1414;SDS011;702;49.466;11.086;2023-02-22T09:58:38;15.17;;;11.60;;
1414;SDS011;702;49.466;11.086;2023-02-22T10:01:13;19.70;;;11.47;;
1414;SDS011;702;49.466;11.086;2023-02-22T10:03:54;13.33;;;11.07;;
1414;SDS011;702;49.466;11.086;2023-02-22T10:06:27;11.53;;;10.30;;
1414;SDS011;702;49.466;11.086;2023-02-22T10:08:56;11.90;;;10.70;;
1414;SDS011;702;49.466;11.086;2023-02-22T10:11:29;14.13;;;11.83;;
1414;SDS011;702;49.466;11.086;2023-02-22T10:14:20;13.23;;;10.67;;
1414;SDS011;702;49.466;11.086;2023-02-22T10:17:13;13.30;;;11.67;;
1414;SDS011;702;49.466;11.086;2023-02-22T10:19:56;12.13;;;10.60;;
1414;SDS011;702;49.466;11.086;2023-02-22T10:22:47;14.60;;;12.20;;
1414;SDS011;702;49.466;11.086;2023-02-22T10:25:29;12.63;;;11.33;;
1414;SDS011;702;49.466;11.086;2023-02-22T10:28:01;12.53;;;11.13;;
1414;SDS011;702;49.466;11.086;2023-02-22T10:30:37;10.60;;;9.50;;
1414;SDS011;702;49.466;11.086;2023-02-22T10:33:09;12.07;;;9.60;;
1414;SDS011;702;49.466;11.086;2023-02-22T10:35:49;12.20;;;10.27;;
1414;SDS011;702;49.466;11.086;2023-02-22T10:38:19;10.93;;;9.83;;
1414;SDS011;702;49.466;11.086;2023-02-22T10:40:52;11.77;;;10.67;;
1414;SDS011;702;49.466;11.086;2023-02-22T10:43:23;10.97;;;9.87;;
1414;SDS011;702;49.466;11.086;2023-02-22T10:45:51;10.27;;;9.27;;
1414;SDS011;702;49.466;11.086;2023-02-22T10:48:21;11.27;;;10.17;;
1414;SDS011;702;49.466;11.086;2023-02-22T10:50:53;10.97;;;9.30;;
1414;SDS011;702;49.466;11.086;2023-02-22T10:53:26;10.20;;;9.20;;
1414;SDS011;702;49.466;11.086;2023-02-22T10:56:13;11.53;;;9.30;;
1414;SDS011;702;49.466;11.086;2023-02-22T10:58:46;11.03;;;9.90;;
1414;SDS011;702;49.466;11.086;2023-02-22T11:01:18;10.43;;;9.43;;
1414;SDS011;702;49.466;11.086;2023-02-22T11:03:55;11.23;;;10.03;;
1414;SDS011;702;49.466;11.086;2023-02-22T11:06:34;11.60;;;10.40;;
1414;SDS011;702;49.466;11.086;2023-02-22T11:09:07;11.03;;;9.83;;
1414;SDS011;702;49.466;11.086;2023-02-22T11:11:38;10.30;;;9.03;;
1414;SDS011;702;49.466;11.086;2023-02-22T11:14:08;10.60;;;9.30;;
1414;SDS011;702;49.466;11.086;2023-02-22T11:16:37;11.80;;;10.10;;
1414;SDS011;702;49.466;11.086;2023-02-22T11:19:10;9.83;;;8.83;;
1414;SDS011;702;49.466;11.086;2023-02-22T11:21:46;9.13;;;8.33;;
1414;SDS011;702;49.466;11.086;2023-02-22T11:24:17;8.83;;;8.03;;
1414;SDS011;702;49.466;11.086;2023-02-22T11:26:49;12.77;;;8.40;;
1414;SDS011;702;49.466;11.086;2023-02-22T11:29:21;9.10;;;8.13;;
1414;SDS011;702;49.466;11.086;2023-02-22T11:31:55;9.80;;;8.60;;
1414;SDS011;702;49.466;11.086;2023-02-22T11:34:28;8.23;;;7.17;;
1414;SDS011;702;49.466;11.086;2023-02-22T11:37:18;8.20;;;7.40;;
1414;SDS011;702;49.466;11.086;2023-02-22T11:40:07;9.50;;;8.60;;
1414;SDS011;702;49.466;11.086;2023-02-22T11:42:42;11.10;;;8.20;;
1414;SDS011;702;49.466;11.086;2023-02-22T11:45:11;11.87;;;8.00;;
1414;SDS011;702;49.466;11.086;2023-02-22T11:47:45;9.43;;;7.47;;
1414;SDS011;702;49.466;11.086;2023-02-22T11:50:23;8.00;;;7.20;;
1414;SDS011;702;49.466;11.086;2023-02-22T11:52:59;8.23;;;7.40;;
1414;SDS011;702;49.466;11.086;2023-02-22T11:55:49;8.23;;;7.30;;
1414;SDS011;702;49.466;11.086;2023-02-22T11:58:34;7.77;;;6.97;;
1414;SDS011;702;49.466;11.086;2023-02-22T12:01:10;8.27;;;7.47;;
1414;SDS011;702;49.466;11.086;2023-02-22T12:04:12;7.03;;;6.33;;
1414;SDS011;702;49.466;11.086;2023-02-22T12:07:23;8.50;;;7.00;;
1414;SDS011;702;49.466;11.086;2023-02-22T12:13:11;7.43;;;6.70;;
1414;SDS011;702;49.466;11.086;2023-02-22T12:15:58;8.07;;;7.23;;
1414;SDS011;702;49.466;11.086;2023-02-22T12:18:42;7.17;;;6.47;;
1414;SDS011;702;49.466;11.086;2023-02-22T12:21:27;8.40;;;6.10;;
1414;SDS011;702;49.466;11.086;2023-02-22T12:23:58;7.10;;;6.40;;
1414;SDS011;702;49.466;11.086;2023-02-22T12:26:33;6.30;;;5.70;;
1414;SDS011;702;49.466;11.086;2023-02-22T12:29:07;7.63;;;6.20;;
1414;SDS011;702;49.466;11.086;2023-02-22T12:31:43;7.70;;;5.97;;
1414;SDS011;702;49.466;11.086;2023-02-22T12:34:18;6.57;;;5.90;;
1414;SDS011;702;49.466;11.086;2023-02-22T12:36:54;6.50;;;5.90;;
1414;SDS011;702;49.466;11.086;2023-02-22T12:39:32;6.97;;;6.27;;
1414;SDS011;702;49.466;11.086;2023-02-22T12:42:12;7.17;;;6.10;;
1414;SDS011;702;49.466;11.086;2023-02-22T12:44:44;9.50;;;6.90;;
1414;SDS011;702;49.466;11.086;2023-02-22T12:47:18;5.83;;;5.33;;
1414;SDS011;702;49.466;11.086;2023-02-22T12:49:53;6.10;;;5.37;;
1414;SDS011;702;49.466;11.086;2023-02-22T12:52:32;6.20;;;5.70;;
1414;SDS011;702;49.466;11.086;2023-02-22T12:55:08;5.60;;;4.83;;
1414;SDS011;702;49.466;11.086;2023-02-22T12:57:46;6.17;;;5.30;;
1414;SDS011;702;49.466;11.086;2023-02-22T13:00:21;6.63;;;5.33;;
1414;SDS011;702;49.466;11.086;2023-02-22T13:02:57;6.93;;;5.10;;
1414;SDS011;702;49.466;11.086;2023-02-22T13:05:28;5.90;;;5.20;;
1414;SDS011;702;49.466;11.086;2023-02-22T13:08:04;7.30;;;5.07;;
1414;SDS011;702;49.466;11.086;2023-02-22T13:10:53;9.73;;;6.23;;
1414;SDS011;702;49.466;11.086;2023-02-22T13:13:37;5.43;;;4.90;;
1414;SDS011;702;49.466;11.086;2023-02-22T13:16:20;5.80;;;5.17;;
1414;SDS011;702;49.466;11.086;2023-02-22T13:19:02;5.93;;;5.03;;
1414;SDS011;702;49.466;11.086;2023-02-22T13:21:43;5.37;;;4.90;;
1414;SDS011;702;49.466;11.086;2023-02-22T13:24:17;6.70;;;4.80;;
1414;SDS011;702;49.466;11.086;2023-02-22T13:26:54;7.23;;;4.70;;
1414;SDS011;702;49.466;11.086;2023-02-22T13:29:30;5.30;;;4.80;;
1414;SDS011;702;49.466;11.086;2023-02-22T13:32:06;6.10;;;5.13;;
1414;SDS011;702;49.466;11.086;2023-02-22T13:35:10;6.77;;;4.67;;
1414;SDS011;702;49.466;11.086;2023-02-22T13:41:10;8.30;;;7.17;;
1414;SDS011;702;49.466;11.086;2023-02-22T13:47:10;7.77;;;6.10;;
1414;SDS011;702;49.466;11.086;2023-02-22T13:50:21;8.90;;;7.03;;
1414;SDS011;702;49.466;11.086;2023-02-22T13:53:14;6.40;;;5.80;;
1414;SDS011;702;49.466;11.086;2023-02-22T13:55:51;8.83;;;5.93;;
1414;SDS011;702;49.466;11.086;2023-02-22T13:58:22;8.60;;;6.20;;
1414;SDS011;702;49.466;11.086;2023-02-22T14:00:50;7.33;;;6.40;;
1414;SDS011;702;49.466;11.086;2023-02-22T14:03:29;11.23;;;9.00;;
1414;SDS011;702;49.466;11.086;2023-02-22T14:06:05;7.10;;;6.43;;
1414;SDS011;702;49.466;11.086;2023-02-22T14:08:44;6.80;;;6.17;;
1414;SDS011;702;49.466;11.086;2023-02-22T14:14:09;8.23;;;5.90;;
1414;SDS011;702;49.466;11.086;2023-02-22T14:16:41;9.43;;;5.67;;
1414;SDS011;702;49.466;11.086;2023-02-22T14:19:17;8.30;;;5.43;;
1414;SDS011;702;49.466;11.086;2023-02-22T14:21:57;5.20;;;4.70;;
1414;SDS011;702;49.466;11.086;2023-02-22T14:24:26;7.53;;;5.10;;
1414;SDS011;702;49.466;11.086;2023-02-22T14:26:57;5.00;;;4.60;;
1414;SDS011;702;49.466;11.086;2023-02-22T14:29:27;4.73;;;4.33;;
1414;SDS011;702;49.466;11.086;2023-02-22T14:32:03;3.50;;;3.20;;
1414;SDS011;702;49.466;11.086;2023-02-22T14:34:40;3.60;;;2.97;;
1414;SDS011;702;49.466;11.086;2023-02-22T14:37:12;3.57;;;3.27;;
1414;SDS011;702;49.466;11.086;2023-02-22T14:39:43;3.03;;;2.73;;
1414;SDS011;702;49.466;11.086;2023-02-22T14:42:15;4.90;;;2.70;;
1414;SDS011;702;49.466;11.086;2023-02-22T14:44:49;4.07;;;3.53;;
1414;SDS011;702;49.466;11.086;2023-02-22T14:47:24;4.03;;;3.70;;
1414;SDS011;702;49.466;11.086;2023-02-22T14:49:58;4.90;;;4.50;;
1414;SDS011;702;49.466;11.086;2023-02-22T14:52:34;6.33;;;5.00;;
1414;SDS011;702;49.466;11.086;2023-02-22T14:55:13;5.77;;;5.13;;
1414;SDS011;702;49.466;11.086;2023-02-22T14:57:48;4.40;;;4.00;;
1414;SDS011;702;49.466;11.086;2023-02-22T15:00:26;5.80;;;4.83;;
1414;SDS011;702;49.466;11.086;2023-02-22T15:03:04;5.97;;;4.53;;
1414;SDS011;702;49.466;11.086;2023-02-22T15:05:38;4.73;;;4.03;;
1414;SDS011;702;49.466;11.086;2023-02-22T15:08:07;3.90;;;3.50;;
1414;SDS011;702;49.466;11.086;2023-02-22T15:10:39;5.30;;;3.87;;
1414;SDS011;702;49.466;11.086;2023-02-22T15:13:13;4.60;;;3.90;;
1414;SDS011;702;49.466;11.086;2023-02-22T15:15:44;5.20;;;2.83;;
1414;SDS011;702;49.466;11.086;2023-02-22T15:18:17;4.63;;;3.70;;
1414;SDS011;702;49.466;11.086;2023-02-22T15:20:54;5.03;;;3.80;;
1414;SDS011;702;49.466;11.086;2023-02-22T15:23:24;6.30;;;4.93;;
1414;SDS011;702;49.466;11.086;2023-02-22T15:25:57;5.33;;;4.80;;
1414;SDS011;702;49.466;11.086;2023-02-22T15:28:25;7.90;;;4.20;;
1414;SDS011;702;49.466;11.086;2023-02-22T15:31:15;6.83;;;4.50;;
1414;SDS011;702;49.466;11.086;2023-02-22T15:33:52;6.93;;;3.77;;
1414;SDS011;702;49.466;11.086;2023-02-22T15:36:23;9.20;;;4.37;;
1414;SDS011;702;49.466;11.086;2023-02-22T15:38:55;4.60;;;4.20;;
1414;SDS011;702;49.466;11.086;2023-02-22T15:41:27;6.00;;;4.13;;
1414;SDS011;702;49.466;11.086;2023-02-22T15:44:01;5.10;;;4.40;;
1414;SDS011;702;49.466;11.086;2023-02-22T15:46:31;6.73;;;4.53;;
1414;SDS011;702;49.466;11.086;2023-02-22T15:49:02;6.10;;;4.53;;